sensor_id;sensor_type;location;lat;lon;timestamp;temperature;humidity
40538;DHT22;27925;41.874;12.526;2023-11-21T00:02:15;17.60;92.20
40538;DHT22;27925;41.874;12.526;2023-11-21T00:04:40;17.70;92.20
40538;DHT22;27925;41.874;12.526;2023-11-21T00:07:06;17.70;92.20
40538;DHT22;27925;41.874;12.526;2023-11-21T00:09:32;17.70;92.20
40538;DHT22;27925;41.874;12.526;2023-11-21T00:11:58;17.70;92.20
40538;DHT22;27925;41.874;12.526;2023-11-21T00:14:28;17.70;92.10
40538;DHT22;27925;41.874;12.526;2023-11-21T00:16:53;17.70;92.20
40538;DHT22;27925;41.874;12.526;2023-11-21T00:19:19;17.70;92.20
40538;DHT22;27925;41.874;12.526;2023-11-21T00:21:45;17.70;92.20
40538;DHT22;27925;41.874;12.526;2023-11-21T00:24:12;17.70;92.10
40538;DHT22;27925;41.874;12.526;2023-11-21T00:26:40;17.70;92.10
40538;DHT22;27925;41.874;12.526;2023-11-21T00:29:05;17.80;92.10
40538;DHT22;27925;41.874;12.526;2023-11-21T00:31:34;17.80;92.00
40538;DHT22;27925;41.874;12.526;2023-11-21T00:34:04;17.80;92.10
40538;DHT22;27925;41.874;12.526;2023-11-21T00:36:31;17.80;92.00
40538;DHT22;27925;41.874;12.526;2023-11-21T00:38:57;17.80;92.10
40538;DHT22;27925;41.874;12.526;2023-11-21T00:41:23;17.80;92.10
40538;DHT22;27925;41.874;12.526;2023-11-21T00:43:49;17.80;92.00
40538;DHT22;27925;41.874;12.526;2023-11-21T00:46:14;17.80;92.00
40538;DHT22;27925;41.874;12.526;2023-11-21T00:48:40;17.80;92.00
40538;DHT22;27925;41.874;12.526;2023-11-21T00:51:06;17.80;92.00
40538;DHT22;27925;41.874;12.526;2023-11-21T00:53:32;17.80;92.00
40538;DHT22;27925;41.874;12.526;2023-11-21T00:55:58;17.80;92.00
40538;DHT22;27925;41.874;12.526;2023-11-21T00:58:24;17.80;91.90
40538;DHT22;27925;41.874;12.526;2023-11-21T01:00:50;17.80;91.90
40538;DHT22;27925;41.874;12.526;2023-11-21T01:03:16;17.80;91.90
40538;DHT22;27925;41.874;12.526;2023-11-21T01:05:42;17.80;91.90
40538;DHT22;27925;41.874;12.526;2023-11-21T01:08:07;17.90;91.90
40538;DHT22;27925;41.874;12.526;2023-11-21T01:10:33;17.80;91.90
40538;DHT22;27925;41.874;12.526;2023-11-21T01:13:03;17.80;91.90
40538;DHT22;27925;41.874;12.526;2023-11-21T01:15:33;17.90;92.00
40538;DHT22;27925;41.874;12.526;2023-11-21T01:17:58;17.90;92.00
40538;DHT22;27925;41.874;12.526;2023-11-21T01:20:24;17.90;92.10
40538;DHT22;27925;41.874;12.526;2023-11-21T01:22:50;17.90;92.10
40538;DHT22;27925;41.874;12.526;2023-11-21T01:25:16;17.90;92.10
40538;DHT22;27925;41.874;12.526;2023-11-21T01:27:42;17.90;92.10
40538;DHT22;27925;41.874;12.526;2023-11-21T01:30:09;17.90;92.10
40538;DHT22;27925;41.874;12.526;2023-11-21T01:32:38;17.90;92.10
40538;DHT22;27925;41.874;12.526;2023-11-21T01:35:05;17.90;92.10
40538;DHT22;27925;41.874;12.526;2023-11-21T01:37:32;17.90;92.10
40538;DHT22;27925;41.874;12.526;2023-11-21T01:39:58;17.90;92.40
40538;DHT22;27925;41.874;12.526;2023-11-21T01:42:24;17.90;92.20
40538;DHT22;27925;41.874;12.526;2023-11-21T01:44:50;17.90;92.20
40538;DHT22;27925;41.874;12.526;2023-11-21T01:47:16;17.90;92.50
40538;DHT22;27925;41.874;12.526;2023-11-21T01:49:45;17.90;92.30
40538;DHT22;27925;41.874;12.526;2023-11-21T01:52:12;17.80;92.30
40538;DHT22;27925;41.874;12.526;2023-11-21T01:54:38;17.80;92.30
40538;DHT22;27925;41.874;12.526;2023-11-21T01:57:05;17.80;92.30
40538;DHT22;27925;41.874;12.526;2023-11-21T01:59:35;17.80;92.40
40538;DHT22;27925;41.874;12.526;2023-11-21T02:02:11;17.80;92.40
40538;DHT22;27925;41.874;12.526;2023-11-21T02:04:37;17.80;92.40
40538;DHT22;27925;41.874;12.526;2023-11-21T02:07:03;17.70;92.40
40538;DHT22;27925;41.874;12.526;2023-11-21T02:09:32;17.70;92.30
40538;DHT22;27925;41.874;12.526;2023-11-21T02:11:59;17.70;92.50
40538;DHT22;27925;41.874;12.526;2023-11-21T02:14:27;17.70;92.60
40538;DHT22;27925;41.874;12.526;2023-11-21T02:16:54;17.70;92.60
40538;DHT22;27925;41.874;12.526;2023-11-21T02:19:22;17.70;92.60
40538;DHT22;27925;41.874;12.526;2023-11-21T02:21:51;17.70;92.60
40538;DHT22;27925;41.874;12.526;2023-11-21T02:24:19;17.70;92.70
40538;DHT22;27925;41.874;12.526;2023-11-21T02:26:45;17.70;92.70
40538;DHT22;27925;41.874;12.526;2023-11-21T02:29:11;17.70;92.70
40538;DHT22;27925;41.874;12.526;2023-11-21T02:31:38;17.70;92.80
40538;DHT22;27925;41.874;12.526;2023-11-21T02:34:17;17.60;92.80
40538;DHT22;27925;41.874;12.526;2023-11-21T02:36:43;17.70;92.80
40538;DHT22;27925;41.874;12.526;2023-11-21T02:39:10;17.70;92.90
40538;DHT22;27925;41.874;12.526;2023-11-21T02:41:37;17.60;92.90
40538;DHT22;27925;41.874;12.526;2023-11-21T02:44:03;17.60;93.00
40538;DHT22;27925;41.874;12.526;2023-11-21T02:46:29;17.60;93.00
40538;DHT22;27925;41.874;12.526;2023-11-21T02:48:54;17.60;93.00
40538;DHT22;27925;41.874;12.526;2023-11-21T02:51:20;17.60;93.10
40538;DHT22;27925;41.874;12.526;2023-11-21T02:53:46;17.60;93.20
40538;DHT22;27925;41.874;12.526;2023-11-21T02:56:12;17.60;93.20
40538;DHT22;27925;41.874;12.526;2023-11-21T02:58:43;17.60;93.20
40538;DHT22;27925;41.874;12.526;2023-11-21T03:01:09;17.60;93.30
40538;DHT22;27925;41.874;12.526;2023-11-21T03:03:39;17.50;93.30
40538;DHT22;27925;41.874;12.526;2023-11-21T03:06:08;17.60;93.10
40538;DHT22;27925;41.874;12.526;2023-11-21T03:08:34;17.60;93.30
40538;DHT22;27925;41.874;12.526;2023-11-21T03:11:00;17.60;93.40
40538;DHT22;27925;41.874;12.526;2023-11-21T03:13:25;17.60;93.30
40538;DHT22;27925;41.874;12.526;2023-11-21T03:15:51;17.60;93.40
40538;DHT22;27925;41.874;12.526;2023-11-21T03:18:17;17.60;93.40
40538;DHT22;27925;41.874;12.526;2023-11-21T03:20:46;17.60;93.40
40538;DHT22;27925;41.874;12.526;2023-11-21T03:23:12;17.60;93.50
40538;DHT22;27925;41.874;12.526;2023-11-21T03:25:37;17.60;93.50
40538;DHT22;27925;41.874;12.526;2023-11-21T03:28:03;17.70;93.60
40538;DHT22;27925;41.874;12.526;2023-11-21T03:30:29;17.70;93.60
40538;DHT22;27925;41.874;12.526;2023-11-21T03:32:55;17.70;93.50
40538;DHT22;27925;41.874;12.526;2023-11-21T03:35:20;17.70;93.60
40538;DHT22;27925;41.874;12.526;2023-11-21T03:37:47;17.70;93.70
40538;DHT22;27925;41.874;12.526;2023-11-21T03:40:12;17.70;93.60
40538;DHT22;27925;41.874;12.526;2023-11-21T03:42:39;17.70;93.70
40538;DHT22;27925;41.874;12.526;2023-11-21T03:45:06;17.70;93.80
40538;DHT22;27925;41.874;12.526;2023-11-21T03:47:32;17.70;93.70
40538;DHT22;27925;41.874;12.526;2023-11-21T03:49:58;17.70;93.80
40538;DHT22;27925;41.874;12.526;2023-11-21T03:52:24;17.70;93.90
40538;DHT22;27925;41.874;12.526;2023-11-21T03:54:50;17.70;93.90
40538;DHT22;27925;41.874;12.526;2023-11-21T03:57:16;17.70;93.80
40538;DHT22;27925;41.874;12.526;2023-11-21T03:59:42;17.70;93.90
40538;DHT22;27925;41.874;12.526;2023-11-21T04:02:09;17.70;93.90
40538;DHT22;27925;41.874;12.526;2023-11-21T04:04:35;17.70;93.90
40538;DHT22;27925;41.874;12.526;2023-11-21T04:07:01;17.70;94.00
40538;DHT22;27925;41.874;12.526;2023-11-21T04:09:27;17.70;93.90
40538;DHT22;27925;41.874;12.526;2023-11-21T04:11:53;17.70;93.90
40538;DHT22;27925;41.874;12.526;2023-11-21T04:14:20;17.60;93.90
40538;DHT22;27925;41.874;12.526;2023-11-21T04:16:45;17.60;93.90
40538;DHT22;27925;41.874;12.526;2023-11-21T04:19:11;17.60;94.00
40538;DHT22;27925;41.874;12.526;2023-11-21T04:21:43;17.60;94.00
40538;DHT22;27925;41.874;12.526;2023-11-21T04:24:09;17.60;93.90
40538;DHT22;27925;41.874;12.526;2023-11-21T04:26:35;17.60;94.10
40538;DHT22;27925;41.874;12.526;2023-11-21T04:29:00;17.60;94.10
40538;DHT22;27925;41.874;12.526;2023-11-21T04:31:26;17.60;94.10
40538;DHT22;27925;41.874;12.526;2023-11-21T04:33:52;17.60;94.10
40538;DHT22;27925;41.874;12.526;2023-11-21T04:36:18;17.60;94.00
40538;DHT22;27925;41.874;12.526;2023-11-21T04:38:43;17.60;94.10
40538;DHT22;27925;41.874;12.526;2023-11-21T04:41:09;17.60;94.10
40538;DHT22;27925;41.874;12.526;2023-11-21T04:43:35;17.60;94.00
40538;DHT22;27925;41.874;12.526;2023-11-21T04:46:01;17.60;94.10
40538;DHT22;27925;41.874;12.526;2023-11-21T04:48:27;17.60;94.10
40538;DHT22;27925;41.874;12.526;2023-11-21T04:50:53;17.60;94.10
40538;DHT22;27925;41.874;12.526;2023-11-21T04:53:19;17.60;94.10
40538;DHT22;27925;41.874;12.526;2023-11-21T04:55:45;17.60;94.10
40538;DHT22;27925;41.874;12.526;2023-11-21T04:58:11;17.60;94.10
40538;DHT22;27925;41.874;12.526;2023-11-21T05:00:38;17.60;94.10
40538;DHT22;27925;41.874;12.526;2023-11-21T05:03:04;17.60;94.20
40538;DHT22;27925;41.874;12.526;2023-11-21T05:05:30;17.60;94.20
40538;DHT22;27925;41.874;12.526;2023-11-21T05:07:56;17.60;94.10
40538;DHT22;27925;41.874;12.526;2023-11-21T05:10:22;17.60;94.10
40538;DHT22;27925;41.874;12.526;2023-11-21T05:12:48;17.60;94.30
40538;DHT22;27925;41.874;12.526;2023-11-21T05:15:16;17.60;94.10
40538;DHT22;27925;41.874;12.526;2023-11-21T05:17:45;17.60;94.10
40538;DHT22;27925;41.874;12.526;2023-11-21T05:20:14;17.60;94.00
40538;DHT22;27925;41.874;12.526;2023-11-21T05:22:43;17.60;94.10
40538;DHT22;27925;41.874;12.526;2023-11-21T05:25:09;17.60;94.10
40538;DHT22;27925;41.874;12.526;2023-11-21T05:27:36;17.60;94.10
40538;DHT22;27925;41.874;12.526;2023-11-21T05:30:03;17.60;94.00
40538;DHT22;27925;41.874;12.526;2023-11-21T05:32:34;17.60;94.00
40538;DHT22;27925;41.874;12.526;2023-11-21T05:35:00;17.60;94.00
40538;DHT22;27925;41.874;12.526;2023-11-21T05:37:26;17.70;94.10
40538;DHT22;27925;41.874;12.526;2023-11-21T05:39:56;17.70;94.10
40538;DHT22;27925;41.874;12.526;2023-11-21T05:42:25;17.70;94.00
40538;DHT22;27925;41.874;12.526;2023-11-21T05:44:51;17.70;94.10
40538;DHT22;27925;41.874;12.526;2023-11-21T05:47:16;17.70;94.10
40538;DHT22;27925;41.874;12.526;2023-11-21T05:49:43;17.70;94.10
40538;DHT22;27925;41.874;12.526;2023-11-21T05:52:10;17.70;94.10
40538;DHT22;27925;41.874;12.526;2023-11-21T05:54:36;17.70;94.10
40538;DHT22;27925;41.874;12.526;2023-11-21T05:57:01;17.70;94.10
40538;DHT22;27925;41.874;12.526;2023-11-21T05:59:27;17.70;94.10
40538;DHT22;27925;41.874;12.526;2023-11-21T06:01:53;17.70;94.00
40538;DHT22;27925;41.874;12.526;2023-11-21T06:04:19;17.70;94.00
40538;DHT22;27925;41.874;12.526;2023-11-21T06:06:47;17.70;94.00
40538;DHT22;27925;41.874;12.526;2023-11-21T06:09:13;17.70;93.90
40538;DHT22;27925;41.874;12.526;2023-11-21T06:11:39;17.70;93.90
40538;DHT22;27925;41.874;12.526;2023-11-21T06:14:04;17.70;93.90
40538;DHT22;27925;41.874;12.526;2023-11-21T06:16:33;17.70;93.90
40538;DHT22;27925;41.874;12.526;2023-11-21T06:18:59;17.70;93.80
40538;DHT22;27925;41.874;12.526;2023-11-21T06:21:24;17.70;93.90
40538;DHT22;27925;41.874;12.526;2023-11-21T06:23:50;17.70;94.00
40538;DHT22;27925;41.874;12.526;2023-11-21T06:26:18;17.80;93.90
40538;DHT22;27925;41.874;12.526;2023-11-21T06:28:44;17.70;93.90
40538;DHT22;27925;41.874;12.526;2023-11-21T06:31:10;17.70;94.00
40538;DHT22;27925;41.874;12.526;2023-11-21T06:33:36;17.80;94.10
40538;DHT22;27925;41.874;12.526;2023-11-21T06:36:02;17.80;94.10
40538;DHT22;27925;41.874;12.526;2023-11-21T06:38:28;17.80;94.10
40538;DHT22;27925;41.874;12.526;2023-11-21T06:40:56;17.80;94.20
40538;DHT22;27925;41.874;12.526;2023-11-21T06:43:22;17.80;94.20
40538;DHT22;27925;41.874;12.526;2023-11-21T06:45:47;17.80;94.20
40538;DHT22;27925;41.874;12.526;2023-11-21T06:48:13;17.80;94.20
40538;DHT22;27925;41.874;12.526;2023-11-21T06:50:40;17.80;94.20
40538;DHT22;27925;41.874;12.526;2023-11-21T06:53:07;17.90;94.30
40538;DHT22;27925;41.874;12.526;2023-11-21T06:55:33;17.90;94.40
40538;DHT22;27925;41.874;12.526;2023-11-21T06:58:00;17.90;94.30
40538;DHT22;27925;41.874;12.526;2023-11-21T07:00:25;17.90;94.40
40538;DHT22;27925;41.874;12.526;2023-11-21T07:02:54;17.90;94.40
40538;DHT22;27925;41.874;12.526;2023-11-21T07:05:21;17.90;94.40
40538;DHT22;27925;41.874;12.526;2023-11-21T07:07:47;18.00;94.40
40538;DHT22;27925;41.874;12.526;2023-11-21T07:10:13;18.00;94.50
40538;DHT22;27925;41.874;12.526;2023-11-21T07:12:40;18.00;94.50
40538;DHT22;27925;41.874;12.526;2023-11-21T07:15:06;18.00;94.50
40538;DHT22;27925;41.874;12.526;2023-11-21T07:17:35;18.00;94.40
40538;DHT22;27925;41.874;12.526;2023-11-21T07:20:04;18.00;94.50
40538;DHT22;27925;41.874;12.526;2023-11-21T07:22:32;18.00;94.50
40538;DHT22;27925;41.874;12.526;2023-11-21T07:24:57;18.10;94.60
40538;DHT22;27925;41.874;12.526;2023-11-21T07:27:23;18.10;94.50
40538;DHT22;27925;41.874;12.526;2023-11-21T07:29:49;18.10;94.50
40538;DHT22;27925;41.874;12.526;2023-11-21T07:32:14;18.10;94.50
40538;DHT22;27925;41.874;12.526;2023-11-21T07:34:41;18.10;94.60
40538;DHT22;27925;41.874;12.526;2023-11-21T07:37:07;18.20;94.50
40538;DHT22;27925;41.874;12.526;2023-11-21T07:39:35;18.20;94.40
40538;DHT22;27925;41.874;12.526;2023-11-21T07:42:01;18.30;94.40
40538;DHT22;27925;41.874;12.526;2023-11-21T07:44:28;18.30;94.30
40538;DHT22;27925;41.874;12.526;2023-11-21T07:46:54;18.30;94.20
40538;DHT22;27925;41.874;12.526;2023-11-21T07:49:23;18.30;94.20
40538;DHT22;27925;41.874;12.526;2023-11-21T07:51:49;18.40;94.10
40538;DHT22;27925;41.874;12.526;2023-11-21T07:54:16;18.40;94.10
40538;DHT22;27925;41.874;12.526;2023-11-21T07:56:42;18.40;94.10
40538;DHT22;27925;41.874;12.526;2023-11-21T07:59:08;18.50;94.00
40538;DHT22;27925;41.874;12.526;2023-11-21T08:01:33;18.50;94.00
40538;DHT22;27925;41.874;12.526;2023-11-21T08:03:59;18.50;94.00
40538;DHT22;27925;41.874;12.526;2023-11-21T08:06:31;18.50;94.10
40538;DHT22;27925;41.874;12.526;2023-11-21T08:08:58;18.40;94.20
40538;DHT22;27925;41.874;12.526;2023-11-21T08:11:24;18.40;94.20
40538;DHT22;27925;41.874;12.526;2023-11-21T08:13:52;18.40;94.20
40538;DHT22;27925;41.874;12.526;2023-11-21T08:16:18;18.40;94.30
40538;DHT22;27925;41.874;12.526;2023-11-21T08:18:44;18.50;94.30
40538;DHT22;27925;41.874;12.526;2023-11-21T08:21:12;18.50;94.30
40538;DHT22;27925;41.874;12.526;2023-11-21T08:23:38;18.50;94.30
40538;DHT22;27925;41.874;12.526;2023-11-21T08:26:05;18.60;94.30
40538;DHT22;27925;41.874;12.526;2023-11-21T08:28:31;18.60;94.30
40538;DHT22;27925;41.874;12.526;2023-11-21T08:30:56;18.60;94.30
40538;DHT22;27925;41.874;12.526;2023-11-21T08:33:22;18.60;94.20
40538;DHT22;27925;41.874;12.526;2023-11-21T08:35:48;18.60;94.20
40538;DHT22;27925;41.874;12.526;2023-11-21T08:38:14;18.70;94.20
40538;DHT22;27925;41.874;12.526;2023-11-21T08:40:40;18.70;94.10
40538;DHT22;27925;41.874;12.526;2023-11-21T08:43:05;18.70;94.00
40538;DHT22;27925;41.874;12.526;2023-11-21T08:45:33;18.80;94.00
40538;DHT22;27925;41.874;12.526;2023-11-21T08:48:00;18.90;94.00
40538;DHT22;27925;41.874;12.526;2023-11-21T08:50:26;19.00;93.90
40538;DHT22;27925;41.874;12.526;2023-11-21T08:52:51;19.00;93.70
40538;DHT22;27925;41.874;12.526;2023-11-21T08:55:17;19.10;93.70
40538;DHT22;27925;41.874;12.526;2023-11-21T08:57:45;19.10;93.50
40538;DHT22;27925;41.874;12.526;2023-11-21T09:00:14;19.20;93.50
40538;DHT22;27925;41.874;12.526;2023-11-21T09:02:43;19.20;93.40
40538;DHT22;27925;41.874;12.526;2023-11-21T09:05:12;19.30;93.30
40538;DHT22;27925;41.874;12.526;2023-11-21T09:07:40;19.40;93.20
40538;DHT22;27925;41.874;12.526;2023-11-21T09:10:07;19.40;93.20
40538;DHT22;27925;41.874;12.526;2023-11-21T09:12:36;19.40;93.10
40538;DHT22;27925;41.874;12.526;2023-11-21T09:15:06;19.40;93.10
40538;DHT22;27925;41.874;12.526;2023-11-21T09:17:33;19.40;93.10
40538;DHT22;27925;41.874;12.526;2023-11-21T09:20:03;19.40;93.20
40538;DHT22;27925;41.874;12.526;2023-11-21T09:22:32;19.40;93.20
40538;DHT22;27925;41.874;12.526;2023-11-21T09:24:58;19.40;93.30
40538;DHT22;27925;41.874;12.526;2023-11-21T09:27:24;19.40;93.40
40538;DHT22;27925;41.874;12.526;2023-11-21T09:29:51;19.30;93.40
40538;DHT22;27925;41.874;12.526;2023-11-21T09:32:20;19.30;93.70
40538;DHT22;27925;41.874;12.526;2023-11-21T09:34:47;19.20;93.50
40538;DHT22;27925;41.874;12.526;2023-11-21T09:37:13;19.10;93.50
40538;DHT22;27925;41.874;12.526;2023-11-21T09:39:40;19.10;93.70
40538;DHT22;27925;41.874;12.526;2023-11-21T09:42:26;19.00;93.80
40538;DHT22;27925;41.874;12.526;2023-11-21T09:45:09;19.00;93.80
40538;DHT22;27925;41.874;12.526;2023-11-21T09:47:38;19.00;94.00
40538;DHT22;27925;41.874;12.526;2023-11-21T09:50:05;18.90;94.00
40538;DHT22;27925;41.874;12.526;2023-11-21T09:55:25;18.70;94.10
40538;DHT22;27925;41.874;12.526;2023-11-21T09:57:53;18.60;94.30
40538;DHT22;27925;41.874;12.526;2023-11-21T10:00:19;18.50;94.50
40538;DHT22;27925;41.874;12.526;2023-11-21T10:02:49;18.50;94.50
40538;DHT22;27925;41.874;12.526;2023-11-21T10:05:16;18.40;94.50
40538;DHT22;27925;41.874;12.526;2023-11-21T10:07:43;18.40;94.50
40538;DHT22;27925;41.874;12.526;2023-11-21T10:10:10;18.50;94.60
40538;DHT22;27925;41.874;12.526;2023-11-21T10:12:37;18.50;94.40
40538;DHT22;27925;41.874;12.526;2023-11-21T10:15:07;18.50;94.40
40538;DHT22;27925;41.874;12.526;2023-11-21T10:17:36;18.50;94.30
40538;DHT22;27925;41.874;12.526;2023-11-21T10:20:11;18.60;94.50
40538;DHT22;27925;41.874;12.526;2023-11-21T10:22:43;18.60;94.40
40538;DHT22;27925;41.874;12.526;2023-11-21T10:25:10;18.60;94.40
40538;DHT22;27925;41.874;12.526;2023-11-21T10:43:07;18.80;93.60
40538;DHT22;27925;41.874;12.526;2023-11-21T10:45:37;19.60;92.40
40538;DHT22;27925;41.874;12.526;2023-11-21T10:48:10;19.60;92.30
40538;DHT22;27925;41.874;12.526;2023-11-21T10:50:36;19.70;92.20
40538;DHT22;27925;41.874;12.526;2023-11-21T10:53:04;19.70;91.90
40538;DHT22;27925;41.874;12.526;2023-11-21T10:55:30;19.70;92.10
40538;DHT22;27925;41.874;12.526;2023-11-21T10:57:59;19.60;91.60
40538;DHT22;27925;41.874;12.526;2023-11-21T11:00:27;19.60;91.40
40538;DHT22;27925;41.874;12.526;2023-11-21T11:02:53;19.70;91.40
40538;DHT22;27925;41.874;12.526;2023-11-21T11:05:23;19.70;91.30
40538;DHT22;27925;41.874;12.526;2023-11-21T11:07:59;19.70;91.20
40538;DHT22;27925;41.874;12.526;2023-11-21T11:10:28;19.70;91.10
40538;DHT22;27925;41.874;12.526;2023-11-21T11:12:56;19.70;91.00
40538;DHT22;27925;41.874;12.526;2023-11-21T11:15:26;19.80;90.70
40538;DHT22;27925;41.874;12.526;2023-11-21T11:17:53;19.80;90.50
40538;DHT22;27925;41.874;12.526;2023-11-21T11:20:27;19.90;90.30
40538;DHT22;27925;41.874;12.526;2023-11-21T11:25:49;19.80;90.00
40538;DHT22;27925;41.874;12.526;2023-11-21T11:28:31;19.90;89.40
40538;DHT22;27925;41.874;12.526;2023-11-21T11:32:00;20.00;89.10
40538;DHT22;27925;41.874;12.526;2023-11-21T11:34:20;20.20;88.70
40538;DHT22;27925;41.874;12.526;2023-11-21T11:36:59;20.20;88.20
40538;DHT22;27925;41.874;12.526;2023-11-21T11:39:39;20.20;88.00
40538;DHT22;27925;41.874;12.526;2023-11-21T11:42:16;20.30;87.50
40538;DHT22;27925;41.874;12.526;2023-11-21T11:47:21;20.60;86.40
40538;DHT22;27925;41.874;12.526;2023-11-21T11:52:53;20.60;85.50
40538;DHT22;27925;41.874;12.526;2023-11-21T11:55:23;20.50;85.60
40538;DHT22;27925;41.874;12.526;2023-11-21T11:57:53;20.50;85.10
40538;DHT22;27925;41.874;12.526;2023-11-21T12:02:58;20.60;84.50
40538;DHT22;27925;41.874;12.526;2023-11-21T12:05:26;20.70;83.70
40538;DHT22;27925;41.874;12.526;2023-11-21T12:07:57;20.70;82.90
40538;DHT22;27925;41.874;12.526;2023-11-21T12:10:25;20.60;82.30
40538;DHT22;27925;41.874;12.526;2023-11-21T12:12:53;20.60;82.20
40538;DHT22;27925;41.874;12.526;2023-11-21T12:15:20;20.60;82.20
40538;DHT22;27925;41.874;12.526;2023-11-21T12:17:47;20.60;82.00
40538;DHT22;27925;41.874;12.526;2023-11-21T12:20:16;20.70;82.20
40538;DHT22;27925;41.874;12.526;2023-11-21T12:22:44;20.60;82.10
40538;DHT22;27925;41.874;12.526;2023-11-21T12:25:14;20.60;82.10
40538;DHT22;27925;41.874;12.526;2023-11-21T12:27:42;20.50;82.00
40538;DHT22;27925;41.874;12.526;2023-11-21T12:30:08;20.50;81.90
40538;DHT22;27925;41.874;12.526;2023-11-21T12:32:39;20.50;81.90
40538;DHT22;27925;41.874;12.526;2023-11-21T12:35:06;20.50;81.60
40538;DHT22;27925;41.874;12.526;2023-11-21T12:37:32;20.60;81.40
40538;DHT22;27925;41.874;12.526;2023-11-21T12:39:58;20.70;81.20
40538;DHT22;27925;41.874;12.526;2023-11-21T12:42:24;20.70;81.00
40538;DHT22;27925;41.874;12.526;2023-11-21T12:45:07;20.70;80.30
40538;DHT22;27925;41.874;12.526;2023-11-21T12:47:35;20.80;80.40
40538;DHT22;27925;41.874;12.526;2023-11-21T12:50:02;21.00;79.30
40538;DHT22;27925;41.874;12.526;2023-11-21T12:52:31;21.00;78.90
40538;DHT22;27925;41.874;12.526;2023-11-21T12:54:58;21.00;78.10
40538;DHT22;27925;41.874;12.526;2023-11-21T12:57:27;21.10;77.70
40538;DHT22;27925;41.874;12.526;2023-11-21T12:59:57;21.00;77.20
40538;DHT22;27925;41.874;12.526;2023-11-21T13:02:26;20.90;77.10
40538;DHT22;27925;41.874;12.526;2023-11-21T13:04:53;20.80;77.30
40538;DHT22;27925;41.874;12.526;2023-11-21T13:07:19;20.70;77.50
40538;DHT22;27925;41.874;12.526;2023-11-21T13:09:45;20.70;77.50
40538;DHT22;27925;41.874;12.526;2023-11-21T13:12:11;20.60;77.80
40538;DHT22;27925;41.874;12.526;2023-11-21T13:14:40;20.70;77.80
40538;DHT22;27925;41.874;12.526;2023-11-21T13:17:05;20.70;77.70
40538;DHT22;27925;41.874;12.526;2023-11-21T13:19:31;20.70;77.90
40538;DHT22;27925;41.874;12.526;2023-11-21T13:21:57;20.70;77.80
40538;DHT22;27925;41.874;12.526;2023-11-21T13:24:24;20.80;77.70
40538;DHT22;27925;41.874;12.526;2023-11-21T13:26:50;20.80;77.50
40538;DHT22;27925;41.874;12.526;2023-11-21T13:29:16;20.80;77.60
40538;DHT22;27925;41.874;12.526;2023-11-21T13:31:42;20.70;77.70
40538;DHT22;27925;41.874;12.526;2023-11-21T13:34:08;20.70;77.90
40538;DHT22;27925;41.874;12.526;2023-11-21T13:36:34;20.70;78.00
40538;DHT22;27925;41.874;12.526;2023-11-21T13:39:01;20.50;77.90
40538;DHT22;27925;41.874;12.526;2023-11-21T13:41:40;20.50;78.20
40538;DHT22;27925;41.874;12.526;2023-11-21T13:44:07;20.50;77.70
40538;DHT22;27925;41.874;12.526;2023-11-21T13:46:51;20.40;77.60
40538;DHT22;27925;41.874;12.526;2023-11-21T13:49:17;20.30;77.50
40538;DHT22;27925;41.874;12.526;2023-11-21T13:51:43;20.20;77.70
40538;DHT22;27925;41.874;12.526;2023-11-21T13:54:16;20.10;78.40
40538;DHT22;27925;41.874;12.526;2023-11-21T13:56:42;20.10;78.10
40538;DHT22;27925;41.874;12.526;2023-11-21T13:59:10;20.00;78.10
40538;DHT22;27925;41.874;12.526;2023-11-21T14:01:57;20.00;78.60
40538;DHT22;27925;41.874;12.526;2023-11-21T14:04:26;19.90;78.80
40538;DHT22;27925;41.874;12.526;2023-11-21T14:07:10;19.90;79.00
40538;DHT22;27925;41.874;12.526;2023-11-21T14:09:54;19.90;79.40
40538;DHT22;27925;41.874;12.526;2023-11-21T14:12:20;19.90;79.30
40538;DHT22;27925;41.874;12.526;2023-11-21T14:14:47;19.90;79.40
40538;DHT22;27925;41.874;12.526;2023-11-21T14:17:13;19.80;79.40
40538;DHT22;27925;41.874;12.526;2023-11-21T14:19:39;19.80;79.30
40538;DHT22;27925;41.874;12.526;2023-11-21T14:22:11;19.80;79.10
40538;DHT22;27925;41.874;12.526;2023-11-21T14:24:38;19.70;79.60
40538;DHT22;27925;41.874;12.526;2023-11-21T14:27:09;19.60;79.40
40538;DHT22;27925;41.874;12.526;2023-11-21T14:29:35;19.60;79.60
40538;DHT22;27925;41.874;12.526;2023-11-21T14:32:05;19.50;79.80
40538;DHT22;27925;41.874;12.526;2023-11-21T14:34:31;19.40;79.80
40538;DHT22;27925;41.874;12.526;2023-11-21T14:36:56;19.40;79.90
40538;DHT22;27925;41.874;12.526;2023-11-21T14:39:22;19.30;80.00
40538;DHT22;27925;41.874;12.526;2023-11-21T14:41:55;19.20;80.30
40538;DHT22;27925;41.874;12.526;2023-11-21T14:44:26;19.20;80.40
40538;DHT22;27925;41.874;12.526;2023-11-21T14:46:54;19.20;80.70
40538;DHT22;27925;41.874;12.526;2023-11-21T14:49:22;19.10;80.70
40538;DHT22;27925;41.874;12.526;2023-11-21T14:51:51;19.10;80.80
40538;DHT22;27925;41.874;12.526;2023-11-21T14:54:30;19.00;80.80
40538;DHT22;27925;41.874;12.526;2023-11-21T14:57:23;19.00;81.00
40538;DHT22;27925;41.874;12.526;2023-11-21T14:59:49;18.90;81.30
40538;DHT22;27925;41.874;12.526;2023-11-21T15:02:23;18.90;81.40
40538;DHT22;27925;41.874;12.526;2023-11-21T15:05:09;18.80;81.40
40538;DHT22;27925;41.874;12.526;2023-11-21T15:07:40;18.70;81.70
40538;DHT22;27925;41.874;12.526;2023-11-21T15:10:07;18.70;81.80
40538;DHT22;27925;41.874;12.526;2023-11-21T15:12:37;18.60;81.90
40538;DHT22;27925;41.874;12.526;2023-11-21T15:15:05;18.60;82.10
40538;DHT22;27925;41.874;12.526;2023-11-21T15:17:36;18.50;82.20
40538;DHT22;27925;41.874;12.526;2023-11-21T15:20:03;18.50;82.50
40538;DHT22;27925;41.874;12.526;2023-11-21T15:22:29;18.50;82.60
40538;DHT22;27925;41.874;12.526;2023-11-21T15:24:55;18.40;82.80
40538;DHT22;27925;41.874;12.526;2023-11-21T15:27:21;18.40;83.10
40538;DHT22;27925;41.874;12.526;2023-11-21T15:29:47;18.40;83.30
40538;DHT22;27925;41.874;12.526;2023-11-21T15:32:15;18.40;83.60
40538;DHT22;27925;41.874;12.526;2023-11-21T15:34:41;18.30;83.70
40538;DHT22;27925;41.874;12.526;2023-11-21T15:37:07;18.30;83.90
40538;DHT22;27925;41.874;12.526;2023-11-21T15:39:35;18.30;84.20
40538;DHT22;27925;41.874;12.526;2023-11-21T15:42:01;18.30;84.40
40538;DHT22;27925;41.874;12.526;2023-11-21T15:44:29;18.30;84.60
40538;DHT22;27925;41.874;12.526;2023-11-21T15:46:57;18.20;84.60
40538;DHT22;27925;41.874;12.526;2023-11-21T15:49:24;18.20;85.10